Baie Verte, Canada
Current Conditions -  °F | °C
As of 9:00 PM on Monday 24 Nov 2014 (Local Time) from CWDH Reporting Station
Clear Clear  
Wind Chill: 23°   Ceiling: Unl
Heat Index: 32°   Visibility: 4mi
Dew Point: 23°   Wind: 13mph
Humidity: 68%   Direction: 140°SE
Pressure: 30.02"   Gusts: 20mph
Location:  49.92°N, 56.18°W
Report Text: CWDH 250000Z AUTO 14011G17KT 4SM NSC 00/M05 A3002 RMK SLP169 PK WND 13017/// T00021051 10009 21010 P0002 60002 70002 WSI/SWOB
Loading
Personal Weather Stations






























Interactive Weather Map New forecast layout! Learn more

10-Day Weather Forecast

Advertisements
Track Severe Weather on mobile